• Join FlightAware (Why Join?)
  • Login
  • US Flag 
 
09:39PM EST


 

Airport Tracker/Info


-or-


 

Live Flight TrackerFlight Track Log ✈ DAL268 ✈ 25-Jul-2013 ✈ KSFO - KJFK

Flight Track Log - Related Links

Times and Time Zones

All times are in EDT time to prevent confusion due to time zone crossing. See the DAL268 flight status page for this flight to view local times or setup timezone preferences in your user account.

Time Position Orientation Groundspeed Altitude Reporting Facility
EDT Latitude Longitude Course Direction KTS MPH feet Rate Location/Type
02:28PM 37.6150 -122.3800 North 2 2  Level FlightAware
02:33PM 37.6070 -122.3860 211° Southwest 28 32  Level FlightAware
02:36PM 37.7406 -121.9800 65° Northeast  Level FlightAware Approximate
02:36PM 37.6070 -122.3840 65° Northeast  Level FlightAware
02:39PM 37.7313 -122.0051 63° Northeast  Level FlightAware Approximate
02:39PM 37.6060 -122.3830 63° Northeast 16 18  Level FlightAware
02:42PM 37.7194 -122.0348 63° Northeast  Level FlightAware Approximate
02:43PM 37.7754 -121.8844 65° Northeast  Level FlightAware Approximate
02:44PM 37.8231 -121.7307 67° East  Level FlightAware Approximate
02:45PM 37.8761 -121.5791 72° East  Level FlightAware Approximate
02:46PM 37.9262 -121.4262 63° Northeast  Level FlightAware Approximate
02:46PM 37.6326 -122.3640 26° Northeast 163 188 700  Level FlightAware ADS-B
02:46PM 37.6372 -122.3610 27° Northeast 168 193 900 1,680 Climbing FlightAware ADS-B
02:46PM 37.6415 -122.3560 43° Northeast 178 205 1,100 1,380 Climbing FlightAware ADS-B
02:47PM 37.6507 -122.3450 43° Northeast 204 235 1,400 1,140 Climbing FlightAware ADS-B
02:47PM 37.6669 -122.3240 46° Northeast 228 262 1,800 1,860 Climbing FlightAware ADS-B
02:47PM 37.6793 -122.3070 47° Northeast 248 285 2,600 2,760 Climbing FlightAware ADS-B
02:48PM 37.6918 -122.2900 47° Northeast 249 287 3,300 2,280 Climbing FlightAware ADS-B
02:48PM 37.7045 -122.2730 47° Northeast 266 306 3,800 2,340 Climbing FlightAware ADS-B
02:48PM 37.7203 -122.2530 45° Northeast 272 313 4,600 2,820 Climbing FlightAware ADS-B
02:49PM 37.7431 -122.2230 46° Northeast 278 320 5,900 2,760 Climbing FlightAware ADS-B
02:49PM 37.7610 -122.2000 45° Northeast 286 329 6,700 2,640 Climbing FlightAware ADS-B
02:49PM 37.7751 -122.1820 45° Northeast 286 329 7,400 2,700 Climbing FlightAware ADS-B
02:49PM 37.7791 -122.1760 50° Northeast 288 331 7,600 2,700 Climbing FlightAware ADS-B
02:49PM 37.7838 -122.1680 53° Northeast 287 330 7,900 2,640 Climbing FlightAware ADS-B
02:50PM 37.7905 -122.1500 65° Northeast 289 333 8,400 2,520 Climbing FlightAware ADS-B
02:50PM 37.7935 -122.1390 71° East 292 336 8,700 2,700 Climbing FlightAware ADS-B
02:50PM 37.8000 -122.1140 72° East 293 337 9,400 2,340 Climbing FlightAware ADS-B
02:50PM 37.8139 -122.0640 71° East 309 356 10,500 1,740 Climbing FlightAware ADS-B
02:51PM 37.8278 -122.0090 72° East 339 390 11,200 1,260 Climbing FlightAware ADS-B
02:51PM 37.8428 -121.9490 72° East 366 421 11,800 1,320 Climbing FlightAware ADS-B
02:52PM 37.8585 -121.8860 72° East 386 444 12,600 1,980 Climbing FlightAware ADS-B
02:52PM 37.8749 -121.8200 73° East 388 447 13,800 2,400 Climbing FlightAware ADS-B
02:53PM 37.8912 -121.7540 73° East 395 455 15,000 2,160 Climbing FlightAware ADS-B
02:53PM 37.9079 -121.6870 72° East 401 461 16,000 2,040 Climbing FlightAware ADS-B
02:54PM 37.9247 -121.6180 73° East 406 467 17,100 2,040 Climbing FlightAware ADS-B
02:54PM 37.9418 -121.5490 73° East 413 475 18,100 1,860 Climbing FlightAware ADS-B
02:55PM 37.9648 -121.4560 73° East 417 480 19,300 1,740 Climbing FlightAware ADS-B
02:56PM 38.0010 -121.3090 73° East 432 497 21,100 1,680 Climbing FlightAware
02:57PM 38.0270 -121.2000 73° East 441 507 22,300 1,560 Climbing FlightAware
02:58PM 38.0520 -121.0980 73° East 450 518 23,400 1,500 Climbing FlightAware
02:58PM 38.0780 -120.9890 73° East 458 527 24,400 1,440 Climbing FlightAware
02:59PM 38.1060 -120.8730 73° East 466 536 25,500 1,320 Climbing FlightAware
03:00PM 38.1310 -120.7690 73° East 476 548 26,300 1,140 Climbing FlightAware
03:00PM 38.1560 -120.6670 73° East 487 560 27,000 1,020 Climbing FlightAware
03:01PM 38.1870 -120.5360 73° East 499 574 27,800 1,020 Climbing FlightAware
03:02PM 38.2230 -120.3840 73° East 507 583 28,800 1,560 Climbing FlightAware
03:03PM 38.2500 -120.2730 73° East 494 568 30,300 1,380 Climbing FlightAware
03:03PM 38.2760 -120.1360 76° East 506 582 30,900 840 Climbing FlightAware
03:04PM 38.2950 -120.0180 78° East 511 588 31,600 1,200 Climbing FlightAware
03:05PM 38.3140 -119.9030 78° East 510 587 32,500 1,140 Climbing FlightAware
03:06PM 38.3360 -119.7750 78° East 516 594 33,200 900 Climbing FlightAware
03:06PM 38.3580 -119.6470 78° East 521 600 33,800 900 Climbing FlightAware
03:07PM 38.3800 -119.5190 78° East 527 606 34,500 840 Climbing FlightAware
03:08PM 38.4010 -119.3910 78° East 531 611 35,000 300 Climbing FlightAware
03:08PM 38.4240 -119.2550 78° East 535 616 35,000  Level FlightAware
03:09PM 38.4400 -119.1550 78° East 539 620 35,000  Level FlightAware
03:10PM 38.4610 -119.0240 78° East 540 621 35,000  Level FlightAware
03:10PM 38.4810 -118.8990 78° East 540 621 35,000  Level FlightAware
03:11PM 38.5020 -118.7650 79° East 541 623 35,000  Level FlightAware
03:12PM 38.5200 -118.6460 79° East 540 621 35,000  Level FlightAware
03:12PM 38.5420 -118.5060 79° East 540 621 35,000  Level FlightAware
03:13PM 38.5630 -118.3670 79° East 540 621 35,000  Level FlightAware
03:14PM 38.5790 -118.2610 79° East 540 621 35,000  Level FlightAware
03:14PM 38.6000 -118.1270 79° East 541 623 35,000  Level FlightAware
03:15PM 38.6160 -118.0200 79° East 541 623 35,000  Level FlightAware
03:16PM 38.6360 -117.8890 79° East 541 623 35,000  Level FlightAware
03:16PM 38.6510 -117.7910 79° East 541 623 35,000  Level FlightAware
03:17PM 38.6750 -117.6270 79° East 541 623 35,000  Level FlightAware
03:18PM 38.6890 -117.5360 79° East 541 623 35,000  Level FlightAware
03:19PM 38.7040 -117.4400 79° East 541 623 35,000  Level FlightAware
03:19PM 38.7180 -117.3440 79° East 541 623 35,000  Level FlightAware
03:20PM 38.7380 -117.2150 79° East 541 623 35,000  Level FlightAware
03:21PM 38.7520 -117.1190 79° East 541 623 35,000  Level FlightAware
03:21PM 38.7720 -116.9900 79° East 541 623 35,000  Level FlightAware
03:22PM 38.7870 -116.8910 79° East 541 623 35,000  Level FlightAware
03:23PM 38.8120 -116.7280 79° East 541 623 35,000  Level FlightAware
03:24PM 38.8310 -116.5990 79° East 541 623 35,000  Level FlightAware
03:24PM 38.8470 -116.4970 79° East 541 623 35,000  Level FlightAware
03:25PM 38.8772 -116.1575 79° East 538 619 35,000  Level Salt Lake Center
03:26PM 38.9025 -115.9697 80° East 533 613 35,000  Level Salt Lake Center
03:27PM 38.9269 -115.7808 80° East 535 616 35,000  Level Salt Lake Center
03:28PM 38.9550 -115.5547 81° East 534 615 35,000  Level Salt Lake Center
03:29PM 38.9817 -115.3586 80° East 536 617 35,000  Level Salt Lake Center
03:30PM 39.0053 -115.1683 81° East 539 620 35,000  Level Salt Lake Center
03:31PM 39.0283 -114.9817 81° East 532 612 35,000  Level Salt Lake Center
03:32PM 39.0517 -114.7925 81° East 535 616 35,000  Level Salt Lake Center
03:33PM 39.0736 -114.6039 81° East 533 613 35,000  Level Salt Lake Center
03:39PM 39.1940 -113.5520 81° East 536 617 35,000  Level FlightAware
03:39PM 39.2020 -113.4690 83° East 534 615 35,000  Level FlightAware
03:41PM 39.2270 -113.2360 82° East 534 615 35,000  Level FlightAware
03:41PM 39.2477 -113.0390 82° East 534 615 35,000  Level FlightAware ADS-B
03:42PM 39.2575 -112.9450 82° East 533 613 35,000  Level FlightAware ADS-B
03:42PM 39.2674 -112.8490 82° East 534 615 35,000  Level FlightAware ADS-B
03:43PM 39.2773 -112.7530 82° East 534 615 35,000  Level FlightAware ADS-B
03:43PM 39.2870 -112.6570 83° East 533 613 35,000  Level FlightAware ADS-B
03:44PM 39.2977 -112.5600 82° East 533 613 35,000  Level FlightAware ADS-B
03:44PM 39.3110 -112.4980 74° East 533 613 35,000  Level FlightAware ADS-B
03:45PM 39.3367 -112.4160 68° East 533 613 35,000  Level FlightAware ADS-B
03:45PM 39.3671 -112.3290 66° East 532 612 35,000  Level FlightAware ADS-B
03:46PM 39.3985 -112.2420 65° Northeast 532 612 35,000  Level FlightAware ADS-B
03:46PM 39.4302 -112.1550 65° Northeast 532 612 35,000  Level FlightAware ADS-B
03:47PM 39.4626 -112.0670 64° Northeast 531 611 35,000  Level FlightAware ADS-B
03:47PM 39.4954 -111.9780 64° Northeast 531 611 35,000  Level FlightAware ADS-B
03:48PM 39.5270 -111.8910 65° Northeast 531 611 35,000  Level FlightAware ADS-B
03:48PM 39.5587 -111.8050 64° Northeast 531 611 35,000  Level FlightAware ADS-B
03:49PM 39.5923 -111.7120 65° Northeast 531 611 35,000  Level FlightAware ADS-B
03:49PM 39.6264 -111.6180 65° Northeast 532 612 35,000  Level FlightAware ADS-B
03:50PM 39.6584 -111.5290 65° Northeast 532 612 35,000  Level FlightAware ADS-B
03:50PM 39.6907 -111.4390 65° Northeast 531 611 35,000  Level FlightAware ADS-B
03:51PM 39.7175 -111.3630 65° Northeast 532 612 35,000  Level FlightAware ADS-B
03:51PM 39.7256 -111.3360 69° East 535 616 35,000  Level FlightAware ADS-B
03:51PM 39.7305 -111.3150 73° East 536 617 35,000  Level FlightAware ADS-B
03:51PM 39.7359 -111.2810 78° East 537 618 35,000  Level FlightAware ADS-B
03:52PM 39.7478 -111.1800 81° East 537 618 35,000  Level FlightAware ADS-B
03:52PM 39.7601 -111.0900 80° East 537 618 35,000  Level FlightAware ADS-B
03:53PM 39.7718 -110.9940 81° East 538 619 35,000  Level FlightAware ADS-B
03:53PM 39.7839 -110.8960 81° East 538 619 35,000  Level FlightAware ADS-B
03:54PM 39.8030 -110.7380 81° East 537 618 35,000  Level FlightAware
03:55PM 39.8210 -110.5980 80° East 537 618 35,000  Level FlightAware
03:56PM 39.8370 -110.4630 81° East 538 619 35,000  Level FlightAware
03:56PM 39.8520 -110.3450 81° East 537 618 35,000  Level FlightAware
03:57PM 39.8670 -110.2200 81° East 540 621 35,000  Level FlightAware
03:58PM 39.8840 -110.0720 81° East 542 624 35,000  Level FlightAware
03:58PM 39.9000 -109.9420 81° East 543 625 35,000  Level FlightAware
03:59PM 39.9120 -109.8320 82° East 544 626 35,000  Level FlightAware
04:00PM 39.9270 -109.7070 81° East 545 627 35,000  Level FlightAware
04:00PM 39.9420 -109.5690 82° East 543 625 35,000  Level FlightAware
04:01PM 39.9600 -109.4130 81° East 543 625 35,000  Level FlightAware
04:02PM 39.9720 -109.2860 83° East 545 627 35,000  Level FlightAware
04:02PM 39.9850 -109.1500 83° East 545 627 35,000  Level FlightAware
04:03PM 39.9980 -109.0190 83° East 544 626 35,000  Level FlightAware
04:04PM 40.0170 -108.8510 82° East 542 624 35,000  Level FlightAware
04:05PM 40.0330 -108.7240 81° East 542 624 35,000  Level FlightAware
04:05PM 40.0520 -108.5810 80° East 541 623 35,000  Level FlightAware
04:06PM 40.0660 -108.4860 79° East 540 621 35,000  Level FlightAware
04:07PM 40.0970 -108.3390 75° East 535 616 35,000  Level FlightAware
04:07PM 40.1320 -108.2210 69° East 531 611 35,000  Level FlightAware
04:08PM 40.1690 -108.1120 66° East 530 610 35,000  Level FlightAware
04:09PM 40.2070 -107.9940 67° East 530 610 35,000  Level FlightAware
04:09PM 40.2500 -107.8620 67° East 528 608 35,000  Level FlightAware
04:10PM 40.2900 -107.7390 67° East 526 605 35,000 420 Level FlightAware
04:11PM 40.3290 -107.6230 66° East 521 600 35,600 960 Climbing FlightAware
04:11PM 40.3590 -107.5290 67° East 517 595 36,300 1,020 Climbing FlightAware
04:12PM 40.4060 -107.3870 66° East 508 585 37,000 480 Climbing FlightAware
04:13PM 40.4420 -107.2750 67° East 507 583 37,000  Level FlightAware
04:13PM 40.4790 -107.1590 67° East 509 586 37,000  Level FlightAware
04:14PM 40.5190 -107.0360 67° East 508 585 37,000  Level FlightAware
04:15PM 40.5540 -106.9230 68° East 507 583 37,000  Level FlightAware
04:16PM 40.5950 -106.7960 67° East 504 580 37,000  Level FlightAware
04:16PM 40.6310 -106.6790 68° East 500 575 37,000  Level FlightAware
04:17PM 40.6670 -106.5650 67° East 497 572 37,000  Level FlightAware
04:18PM 40.7030 -106.4510 67° East 498 573 37,000  Level FlightAware
04:18PM 40.7350 -106.3490 67° East 499 574 37,000  Level FlightAware
04:19PM 40.7670 -106.2440 68° East 500 575 37,000  Level FlightAware
04:20PM 40.8090 -106.1110 67° East 501 577 37,000  Level FlightAware
04:20PM 40.8370 -106.0180 68° East 501 577 37,000  Level FlightAware
04:21PM 40.8680 -105.9190 67° East 498 573 37,000  Level FlightAware
04:21PM 40.9040 -105.8010 68° East 499 574 37,000  Level FlightAware
04:22PM 40.9430 -105.6700 68° East 498 573 37,000  Level FlightAware
04:23PM 40.9780 -105.5560 68° East 500 575 37,000  Level FlightAware
04:24PM 41.0120 -105.4420 68° East 497 572 37,000  Level FlightAware
04:24PM 41.0450 -105.3340 68° East 495 570 37,000  Level FlightAware
04:25PM 41.0752 -105.2320 69° East 495 570 37,000  Level FlightAware ADS-B
04:25PM 41.1013 -105.1450 68° East 497 572 37,000  Level FlightAware ADS-B
04:26PM 41.1273 -105.0570 69° East 498 573 37,000  Level FlightAware ADS-B
04:26PM 41.1533 -104.9690 69° East 501 577 37,000  Level FlightAware ADS-B
04:27PM 41.1792 -104.8810 69° East 502 578 37,000  Level FlightAware ADS-B
04:27PM 41.2048 -104.7940 69° East 503 579 37,000  Level FlightAware ADS-B
04:28PM 41.2234 -104.7280 69° East 504 580 37,000  Level FlightAware ADS-B
04:28PM 41.2443 -104.6380 73° East 505 581 37,000  Level FlightAware ADS-B
04:29PM 41.2644 -104.5480 73° East 505 581 37,000  Level FlightAware ADS-B
04:29PM 41.2861 -104.4530 73° East 505 581 37,000  Level FlightAware ADS-B
04:30PM 41.3067 -104.3640 73° East 505 581 37,000  Level FlightAware ADS-B
04:30PM 41.3275 -104.2750 73° East 505 581 37,000  Level FlightAware ADS-B
04:31PM 41.3488 -104.1840 73° East 505 581 37,000  Level FlightAware ADS-B
04:31PM 41.3696 -104.0950 73° East 507 583 37,000  Level FlightAware ADS-B
04:32PM 41.3905 -104.0050 73° East 509 586 37,000  Level FlightAware ADS-B
04:32PM 41.4112 -103.9150 73° East 509 586 37,000  Level FlightAware ADS-B
04:33PM 41.4324 -103.8220 73° East 511 588 37,000  Level FlightAware ADS-B
04:33PM 41.4557 -103.7200 73° East 510 587 37,000  Level FlightAware ADS-B
04:34PM 41.4768 -103.6270 73° East 510 587 37,000  Level FlightAware ADS-B
04:34PM 41.4972 -103.5370 73° East 509 586 37,000  Level FlightAware ADS-B
04:35PM 41.5175 -103.4470 73° East 507 583 37,000  Level FlightAware ADS-B
04:35PM 41.5378 -103.3560 73° East 507 583 37,000  Level FlightAware ADS-B
04:36PM 41.5591 -103.2600 73° East 507 583 37,000  Level FlightAware ADS-B
04:37PM 41.5833 -103.1510 73° East 507 583 37,000  Level FlightAware ADS-B
04:37PM 41.6060 -103.0480 74° East 505 581 37,000  Level FlightAware
04:37PM 41.6131 -103.0160 73° East 507 583 37,000  Level FlightAware ADS-B
04:38PM 41.6357 -102.9130 74° East 505 581 37,000  Level FlightAware ADS-B
04:38PM 41.6559 -102.8210 74° East 504 580 37,000  Level FlightAware ADS-B
04:39PM 41.6753 -102.7310 74° East 504 580 37,000  Level FlightAware ADS-B
04:40PM 41.7030 -102.6030 74° East 502 578 37,000  Level FlightAware
04:40PM 41.7246 -102.5030 74° East 502 578 37,000  Level FlightAware ADS-B
04:41PM 41.7454 -102.4050 74° East 502 578 37,000  Level FlightAware ADS-B
04:41PM 41.7649 -102.3140 74° East 503 579 37,000  Level FlightAware ADS-B
04:42PM 41.7851 -102.2190 74° East 503 579 37,000  Level FlightAware ADS-B
04:42PM 41.8048 -102.1260 74° East 503 579 37,000  Level FlightAware ADS-B
04:43PM 41.8277 -102.0170 74° East 502 578 37,000  Level FlightAware ADS-B
04:43PM 41.8469 -101.9240 74° East 502 578 37,000  Level FlightAware ADS-B
04:44PM 41.8659 -101.8340 74° East 502 578 37,000  Level FlightAware ADS-B
04:44PM 41.8868 -101.7330 74° East 501 577 37,000  Level FlightAware ADS-B
04:45PM 41.9057 -101.6410 75° East 502 578 37,000  Level FlightAware ADS-B
04:46PM 41.9439 -101.4536 75° East 498 573 37,000  Level Minneapolis Center
04:47PM 41.9806 -101.2700 75° East 505 581 37,000  Level Minneapolis Center
04:48PM 42.0247 -101.0506 75° East 506 582 37,000  Level Minneapolis Center
04:49PM 42.0614 -100.8678 75° East 506 582 37,000  Level Minneapolis Center
04:50PM 42.0978 -100.6822 75° East 510 587 37,000  Level Minneapolis Center
04:51PM 42.1342 -100.4967 75° East 511 588 37,000  Level Minneapolis Center
04:52PM 42.1628 -100.3494 75° East 509 586 37,000  Level Minneapolis Center
04:53PM 42.2058 -100.1231 76° East 516 594 37,000  Level Minneapolis Center
04:54PM 42.2414 -99.9364 76° East 518 596 37,000  Level Denver Center
04:56PM 42.2856 -99.7078 75° East 518 596 37,000  Level Minneapolis Center
04:57PM 42.3269 -99.4819 76° East 516 594 37,000  Level Minneapolis Center
04:58PM 42.3556 -99.3272 76° East 519 597 37,000  Level Denver Center
04:59PM 42.3789 -99.0964 82° East 522 601 37,000  Level Minneapolis Center
05:00PM 42.3936 -98.9003 84° East 523 602 37,000  Level Minneapolis Center
05:01PM 42.4100 -98.7050 83° East 522 601 37,000 240 Level Minneapolis Center
05:07PM 42.4800 -97.5560 83° East 39,000 240 Climbing FlightAware
05:08PM 42.4900 -97.3550 86° East 521 600 39,000  Level FlightAware
05:09PM 42.5000 -97.1660 86° East 521 600 39,000  Level FlightAware
05:09PM 42.5060 -97.0550 86° East 521 600 39,000  Level FlightAware
05:10PM 42.5130 -96.9040 86° East 521 600 39,000  Level FlightAware
05:11PM 42.5200 -96.7560 86° East 523 602 39,000  Level FlightAware
05:11PM 42.5270 -96.6250 86° East 524 603 39,000  Level FlightAware
05:12PM 42.5330 -96.4850 87° East 522 601 39,000  Level FlightAware
05:13PM 42.5390 -96.3620 86° East 523 602 39,000  Level FlightAware
05:13PM 42.5440 -96.2440 87° East 522 601 39,000  Level FlightAware
05:14PM 42.5520 -96.0560 87° East 520 598 39,000  Level FlightAware
05:15PM 42.5570 -95.9290 87° East 519 597 39,000  Level FlightAware
05:16PM 42.5620 -95.7890 87° East 518 596 39,000  Level FlightAware
05:16PM 42.5680 -95.6550 86° East 518 596 39,000  Level FlightAware
05:17PM 42.5730 -95.5150 87° East 519 597 39,000  Level FlightAware
05:18PM 42.5780 -95.3680 87° East 520 598 39,000  Level FlightAware
05:19PM 42.5830 -95.2300 87° East 520 598 39,000  Level FlightAware
05:19PM 42.5870 -95.1070 87° East 521 600 39,000  Level FlightAware
05:20PM 42.5910 -94.9820 87° East 521 600 39,000  Level FlightAware
05:20PM 42.5950 -94.8560 87° East 522 601 39,000  Level FlightAware
05:21PM 42.5990 -94.7120 88° East 521 600 39,000  Level FlightAware
05:22PM 42.6030 -94.5940 87° East 521 600 39,000  Level FlightAware
05:22PM 42.6070 -94.4630 88° East 520 598 39,000  Level FlightAware
05:23PM 42.6100 -94.3380 88° East 518 596 39,000  Level FlightAware
05:24PM 42.6140 -94.1980 88° East 518 596 39,000  Level FlightAware
05:25PM 42.6140 -94.0540 90° East 518 596 39,000  Level FlightAware
05:25PM 42.6140 -93.8910 90° East 517 595 39,000  Level FlightAware
05:26PM 42.6140 -93.7390 90° East 518 596 39,000  Level FlightAware
05:27PM 42.6150 -93.6280 89° East 518 596 39,000  Level FlightAware
05:27PM 42.6160 -93.5000 89° East 517 595 39,000  Level FlightAware
05:28PM 42.6160 -93.3510 90° East 517 595 39,000  Level FlightAware
05:29PM 42.6170 -93.2290 89° East 518 596 39,000  Level FlightAware
05:30PM 42.6170 -93.0780 90° East 518 596 39,000  Level FlightAware
05:30PM 42.6170 -92.9590 90° East 519 597 39,000  Level FlightAware
05:31PM 42.6160 -92.8250 91° East 519 597 39,000  Level FlightAware
05:32PM 42.6160 -92.6830 90° East 520 598 39,000  Level FlightAware
05:32PM 42.6150 -92.5440 91° East 520 598 39,000  Level FlightAware
05:33PM 42.6140 -92.4070 91° East 519 597 39,000  Level FlightAware
05:34PM 42.6130 -92.2220 90° East 518 596 39,000  Level FlightAware
05:35PM 42.6120 -92.0780 90° East 519 597 39,000  Level FlightAware
05:35PM 42.6100 -91.9440 91° East 520 598 39,000  Level FlightAware
05:36PM 42.6090 -91.8270 91° East 520 598 39,000  Level FlightAware
05:37PM 42.6070 -91.7030 91° East 520 598 39,000  Level FlightAware
05:37PM 42.6050 -91.5570 91° East 521 600 39,000  Level FlightAware
05:38PM 42.6040 -91.4330 91° East 521 600 39,000  Level FlightAware
05:39PM 42.6020 -91.3030 91° East 520 598 39,000  Level FlightAware
05:39PM 42.5990 -91.1590 92° East 520 598 39,000  Level FlightAware
05:40PM 42.5970 -91.0530 91° East 520 598 39,000  Level FlightAware
05:41PM 42.5930 -90.8480 91° East 522 601 39,000  Level FlightAware
05:42PM 42.5900 -90.7150 92° East 522 601 39,000  Level FlightAware
05:42PM 42.5880 -90.5880 91° East 523 602 39,000  Level FlightAware
05:43PM 42.5850 -90.4680 92° East 522 601 39,000  Level FlightAware
05:44PM 42.5810 -90.2930 92° East 520 598 39,000  Level FlightAware
05:45PM 42.5770 -90.1430 92° East 515 593 39,000  Level FlightAware
05:45PM 42.5730 -90.0100 92° East 508 585 39,000  Level FlightAware
05:46PM 42.5690 -89.8720 92° East 504 580 39,000  Level FlightAware
05:47PM 42.5660 -89.7450 92° East 501 577 39,000  Level FlightAware
05:47PM 42.5620 -89.6120 92° East 498 573 39,000  Level FlightAware
05:48PM 42.5580 -89.4880 92° East 499 574 39,000  Level FlightAware
05:49PM 42.5530 -89.3590 93° East 499 574 39,000  Level FlightAware
05:50PM 42.5490 -89.2220 92° East 500 575 39,000  Level FlightAware
05:50PM 42.5440 -89.0830 93° East 501 577 39,000  Level FlightAware
05:51PM 42.5390 -88.9580 93° East 500 575 39,000  Level FlightAware
05:52PM 42.5340 -88.8250 93° East 501 577 39,000  Level FlightAware
05:52PM 42.5290 -88.6970 93° East 502 578 39,000  Level FlightAware
05:53PM 42.5240 -88.5670 93° East 502 578 39,000  Level FlightAware
05:54PM 42.5190 -88.4330 93° East 503 579 39,000  Level FlightAware
05:54PM 42.5130 -88.2960 93° East 504 580 39,000  Level FlightAware
05:55PM 42.5080 -88.1830 93° East 504 580 39,000  Level FlightAware
05:56PM 42.5030 -88.0560 93° East 505 581 39,000  Level FlightAware
05:56PM 42.5000 -87.9410 92° East 504 580 39,000  Level FlightAware
05:57PM 42.5000 -87.8120 90° East 504 580 39,000  Level FlightAware
05:58PM 42.5000 -87.6970 90° East 504 580 39,000  Level FlightAware
05:58PM 42.4990 -87.5580 91° East 503 579 39,000  Level FlightAware
05:59PM 42.4990 -87.4140 90° East 503 579 39,000  Level FlightAware
06:00PM 42.4980 -87.2940 91° East 503 579 39,000  Level FlightAware
06:01PM 42.4970 -87.1490 90° East 503 579 39,000  Level FlightAware
06:01PM 42.4960 -87.0150 91° East 503 579 39,000  Level FlightAware
06:02PM 42.4950 -86.9060 91° East 503 579 39,000 -180 Level FlightAware
06:02PM 42.4940 -86.7920 91° East 502 578 38,800 -780 Descending FlightAware
06:03PM 42.4920 -86.6460 91° East 506 582 38,000 -1,020 Descending FlightAware
06:04PM 42.4910 -86.5310 91° East 509 586 37,400 -840 Descending FlightAware
06:04PM 42.4890 -86.4130 91° East 509 586 37,000 -300 Descending FlightAware
06:05PM 42.4870 -86.2680 91° East 508 585 37,000  Level FlightAware
06:06PM 42.4850 -86.1370 91° East 505 581 37,000  Level FlightAware
06:07PM 42.4830 -85.9990 91° East 504 580 37,000  Level FlightAware
06:07PM 42.4810 -85.8730 91° East 502 578 37,000  Level FlightAware
06:08PM 42.4780 -85.7400 92° East 501 577 37,000  Level FlightAware
06:09PM 42.4760 -85.6110 91° East 500 575 37,000  Level FlightAware
06:09PM 42.4740 -85.5020 91° East 499 574 37,000  Level FlightAware
06:10PM 42.4710 -85.3780 92° East 499 574 37,000  Level FlightAware
06:11PM 42.4680 -85.2430 92° East 500 575 37,000  Level FlightAware
06:11PM 42.4650 -85.1430 92° East 499 574 37,000  Level FlightAware
06:12PM 42.4620 -85.0070 92° East 499 574 37,000  Level FlightAware
06:13PM 42.4580 -84.8720 92° East 498 573 37,000  Level FlightAware
06:13PM 42.4550 -84.7410 92° East 497 572 37,000  Level FlightAware
06:14PM 42.4510 -84.6220 93° East 497 572 37,000  Level FlightAware
06:15PM 42.4470 -84.4930 92° East 497 572 37,000  Level FlightAware
06:15PM 42.4430 -84.3500 92° East 497 572 37,000  Level FlightAware
06:16PM 42.4390 -84.2370 93° East 495 570 37,000  Level FlightAware
06:17PM 42.4350 -84.1070 92° East 489 563 37,000  Level FlightAware
06:17PM 42.4310 -83.9790 92° East 480 552 37,000  Level FlightAware
06:18PM 42.4270 -83.8720 93° East 476 548 37,000  Level FlightAware
06:19PM 42.4220 -83.7460 93° East 476 548 37,000  Level FlightAware
06:19PM 42.4180 -83.6290 93° East 479 551 37,000  Level FlightAware
06:20PM 42.4130 -83.4970 93° East 480 552 37,000  Level FlightAware
06:21PM 42.4080 -83.3810 93° East 480 552 37,000  Level FlightAware
06:21PM 42.4030 -83.2570 93° East 479 551 37,000  Level FlightAware
06:22PM 42.3980 -83.1300 93° East 477 549 37,000  Level FlightAware
06:23PM 42.3930 -83.0150 93° East 475 547 37,000  Level FlightAware
06:24PM 42.3880 -82.8960 93° East 472 543 37,000  Level FlightAware
06:24PM 42.3820 -82.7700 94° East 469 540 37,000  Level FlightAware
06:25PM 42.3780 -82.6750 93° East 467 537 37,000  Level FlightAware
06:25PM 42.3730 -82.5530 93° East 470 541 37,000  Level FlightAware
06:26PM 42.3680 -82.4260 93° East 486 559 37,000  Level FlightAware
06:27PM 42.3630 -82.2970 93° East 492 566 37,000  Level FlightAware
06:28PM 42.3510 -82.1710 97° East 492 566 37,000  Level FlightAware
06:28PM 42.3360 -82.0160 97° East 494 568 37,000  Level FlightAware
06:29PM 42.3240 -81.8880 97° East 496 571 37,000  Level FlightAware
06:30PM 42.3120 -81.7580 97° East 496 571 37,000  Level FlightAware
06:31PM 42.3000 -81.6190 97° East 497 572 37,000  Level FlightAware
06:31PM 42.2900 -81.5160 97° East 497 572 37,000  Level FlightAware
06:32PM 42.2760 -81.3720 97° East 493 567 37,000  Level FlightAware
06:33PM 42.2630 -81.2450 98° East 492 566 37,000  Level FlightAware
06:33PM 42.2510 -81.1260 98° East 491 565 37,000  Level FlightAware
06:34PM 42.2380 -81.0050 98° East 489 563 37,000  Level FlightAware
06:35PM 42.2220 -80.8540 98° East 486 559 37,000  Level FlightAware
06:36PM 42.2100 -80.7320 98° East 484 557 37,000  Level FlightAware
06:36PM 42.1970 -80.6150 98° East 481 554 37,000  Level FlightAware
06:37PM 42.1860 -80.5150 98° East 478 550 37,000  Level FlightAware
06:37PM 42.1730 -80.3910 98° East 476 548 37,000  Level FlightAware
06:38PM 42.1590 -80.2620 98° East 474 545 37,000  Level FlightAware
06:39PM 42.1430 -80.1230 99° East 471 542 37,000  Level FlightAware
06:40PM 42.1300 -80.0040 98° East 469 540 37,000  Level FlightAware
06:40PM 42.1140 -79.8690 99° East 467 537 37,000  Level FlightAware
06:41PM 42.1000 -79.7470 99° East 468 539 37,000  Level FlightAware
06:42PM 42.0850 -79.6160 99° East 469 540 37,000  Level FlightAware
06:43PM 42.0710 -79.4970 99° East 471 542 37,000  Level FlightAware
06:43PM 42.0570 -79.3810 99° East 473 544 37,000  Level FlightAware
06:44PM 42.0430 -79.2630 99° East 475 547 37,000  Level FlightAware
06:45PM 42.0300 -79.1540 99° East 476 548 37,000  Level FlightAware
06:45PM 42.0160 -79.0350 99° East 475 547 37,000  Level FlightAware
06:46PM 42.0020 -78.9240 100° East 474 545 37,000  Level FlightAware
06:47PM 41.9870 -78.8050 100° East 473 544 37,000  Level FlightAware
06:47PM 41.9720 -78.6820 99° East 473 544 37,000  Level FlightAware
06:48PM 41.9590 -78.5740 99° East 471 542 37,000  Level FlightAware
06:49PM 41.9420 -78.4400 100° East 470 541 37,000  Level FlightAware
06:49PM 41.9280 -78.3330 100° East 469 540 37,000  Level FlightAware
06:50PM 41.9120 -78.2140 100° East 467 537 37,000  Level FlightAware
06:51PM 41.8950 -78.0800 100° East 468 539 37,000  Level FlightAware
06:51PM 41.8820 -77.9790 100° East 469 540 37,000  Level FlightAware
06:52PM 41.8650 -77.8660 101° East 466 536 37,000  Level FlightAware
06:53PM 41.8390 -77.7540 107° East 462 532 37,000  Level FlightAware
06:53PM 41.8140 -77.6570 109° East 461 531 37,000  Level FlightAware
06:54PM 41.7840 -77.5440 110° East 460 529 37,000  Level FlightAware
06:55PM 41.7520 -77.4250 110° East 460 529 37,000  Level FlightAware
06:55PM 41.7240 -77.3220 110° East 459 528 37,000  Level FlightAware
06:56PM 41.6920 -77.2020 110° East 457 526 37,000  Level FlightAware
06:57PM 41.6560 -77.0680 110° East 456 525 37,000  Level FlightAware
06:58PM 41.6290 -76.9670 110° East 455 524 37,000  Level FlightAware
06:58PM 41.6030 -76.8720 110° East 453 521 37,000  Level FlightAware
06:59PM 41.5644 -76.7308 110° East 451 519 37,000  Level FlightAware ADS-B
07:00PM 41.5425 -76.6510 110° East 449 517 37,000  Level FlightAware ADS-B
07:00PM 41.5198 -76.5685 110° East 446 513 37,000 -120 Level FlightAware ADS-B
07:01PM 41.4982 -76.4906 110° East 444 511 36,900 -480 Descending FlightAware ADS-B
07:01PM 41.4754 -76.4085 110° East 442 509 36,500 -960 Descending FlightAware ADS-B
07:02PM 41.4532 -76.3287 110° East 443 510 35,900 -1,080 Descending FlightAware ADS-B
07:02PM 41.4316 -76.2513 110° East 444 511 35,400 -900 Descending FlightAware ADS-B
07:03PM 41.4099 -76.1741 111° Southeast 442 509 35,000 -900 Descending FlightAware ADS-B
07:03PM 41.3885 -76.0974 110° East 441 507 34,500 -900 Descending FlightAware ADS-B
07:04PM 41.3655 -76.0157 111° Southeast 437 503 34,100 -900 Descending FlightAware ADS-B
07:04PM 41.3433 -75.9373 111° Southeast 439 505 33,600 -1,320 Descending FlightAware ADS-B
07:05PM 41.3215 -75.8608 111° Southeast 446 513 32,800 -1,800 Descending FlightAware ADS-B
07:05PM 41.2976 -75.7767 111° Southeast 459 528 31,800 -1,920 Descending FlightAware ADS-B
07:06PM 41.2738 -75.6954 111° Southeast 468 539 30,800 -3,000 Descending FlightAware ADS-B
07:06PM 41.2478 -75.6144 113° Southeast 480 552 28,800 -3,960 Descending FlightAware ADS-B
07:07PM 41.2204 -75.5319 114° Southeast 485 558 26,800 -3,480 Descending FlightAware ADS-B
07:07PM 41.1931 -75.4501 114° Southeast 477 549 25,300 -3,000 Descending FlightAware ADS-B
07:08PM 41.1620 -75.3577 114° Southeast 469 540 23,600 -2,160 Descending FlightAware ADS-B
07:08PM 41.1357 -75.2797 114° Southeast 456 525 23,000 -600 Descending FlightAware ADS-B
07:09PM 41.1083 -75.1986 114° Southeast 454 522 23,000  Level FlightAware ADS-B
07:09PM 41.0807 -75.1176 114° Southeast 454 522 23,000  Level FlightAware ADS-B
07:10PM 41.0544 -75.0403 114° Southeast 454 522 23,000  Level FlightAware ADS-B
07:10PM 41.0283 -74.9635 114° Southeast 456 525 23,000  Level FlightAware ADS-B
07:11PM 41.0065 -74.8965 113° Southeast 459 528 23,000  Level FlightAware ADS-B
07:11PM 40.9971 -74.8574 108° East 460 529 23,000 -1,140 Level FlightAware ADS-B
07:12PM 40.9792 -74.7679 105° East 453 521 22,100 -2,100 Descending FlightAware ADS-B
07:12PM 40.9629 -74.6863 105° East 444 511 20,800 -2,460 Descending FlightAware ADS-B
07:13PM 40.9479 -74.6053 104° East 432 497 19,600 -1,800 Descending FlightAware ADS-B
07:13PM 40.9296 -74.5298 108° East 426 490 19,000 -840 Descending FlightAware ADS-B
07:13PM 40.9217 -74.4941 106° East 425 489 19,000  Level FlightAware ADS-B
07:14PM 40.9128 -74.4539 106° East 426 490 19,000  Level FlightAware ADS-B
07:14PM 40.8996 -74.3937 106° East 419 482 19,000  Level FlightAware ADS-B
07:14PM 40.8964 -74.3785 106° East 413 475 19,000  Level FlightAware ADS-B
07:15PM 40.8810 -74.3075 106° East 375 432 19,000  Level FlightAware ADS-B
07:15PM 40.8670 -74.2437 106° East 342 394 19,000  Level FlightAware ADS-B
07:15PM 40.8609 -74.2216 110° East 332 382 19,000 -180 Level FlightAware ADS-B
07:16PM 40.8434 -74.1656 112° Southeast 329 379 18,900 -960 Descending FlightAware ADS-B
07:17PM 40.8216 -74.0989 113° Southeast 334 384 18,000 -1,500 Descending FlightAware ADS-B
07:17PM 40.8130 -74.0739 114° Southeast 330 380 17,700 -1,500 Descending FlightAware ADS-B
07:17PM 40.8016 -74.0406 114° Southeast 329 379 17,200 -1,560 Descending FlightAware ADS-B
07:18PM 40.7827 -73.9842 114° Southeast 325 374 16,400 -1,680 Descending FlightAware ADS-B
07:18PM 40.7812 -73.9797 114° Southeast 327 376 16,300 -2,280 Descending FlightAware ADS-B
07:18PM 40.7585 -73.9135 114° Southeast 312 359 14,900 -2,400 Descending FlightAware ADS-B
07:19PM 40.7390 -73.8593 115° Southeast 310 357 13,600 -2,400 Descending FlightAware ADS-B
07:19PM 40.7366 -73.8528 116° Southeast 321 369 13,500 -1,140 Descending FlightAware ADS-B
07:19PM 40.7150 -73.7958 117° Southeast 307 353 12,900 -540 Descending FlightAware ADS-B
07:20PM 40.6960 -73.7450 116° Southeast 303 349 12,900 -120 Level FlightAware
07:20PM 40.6761 -73.6918 116° Southeast 306 352 12,800  Descending FlightAware ADS-B
07:21PM 40.6630 -73.6090 102° East 309 356 12,900  Climbing FlightAware
07:22PM 40.6582 -73.5664 98° East 305 351 12,800 -1,440 Descending FlightAware ADS-B
07:22PM 40.6348 -73.5258 127° Southeast 293 337 11,700 -2,400 Descending FlightAware ADS-B
07:22PM 40.6291 -73.5212 149° Southeast 289 333 11,500 -2,160 Descending FlightAware ADS-B
07:22PM 40.6143 -73.5148 162° South 285 328 11,100 -2,340 Descending FlightAware ADS-B
07:23PM 40.6025 -73.5146 179° South 283 326 10,700 -2,700 Descending FlightAware ADS-B
07:23PM 40.5886 -73.5196 195° South 281 323 10,200 -2,640 Descending FlightAware ADS-B
07:23PM 40.5743 -73.5268 201° Southwest 283 326 9,700 -2,460 Descending FlightAware ADS-B
07:23PM 40.5619 -73.5307 193° South 284 327 9,300 -2,460 Descending FlightAware ADS-B
07:23PM 40.5402 -73.5350 189° South 285 328 8,600 -2,700 Descending FlightAware ADS-B
07:24PM 40.5178 -73.5384 187° South 285 328 7,800 -2,280 Descending FlightAware ADS-B
07:24PM 40.4934 -73.5417 186° South 286 329 7,300 -1,440 Descending FlightAware ADS-B
07:24PM 40.4674 -73.5452 186° South 286 329 6,900 -780 Descending FlightAware ADS-B
07:25PM 40.4394 -73.5493 186° South 288 331 6,800 -180 Descending FlightAware ADS-B
07:25PM 40.4180 -73.5522 186° South 286 329 6,800  Level FlightAware ADS-B
07:25PM 40.3930 -73.5557 186° South 282 325 6,800 -360 Level FlightAware ADS-B
07:26PM 40.3674 -73.5590 186° South 278 320 6,600 -1,320 Descending FlightAware ADS-B
07:26PM 40.3442 -73.5621 186° South 278 320 6,000 -2,040 Descending FlightAware ADS-B
07:26PM 40.3219 -73.5660 188° South 278 320 5,400 -1,200 Descending FlightAware ADS-B
07:27PM 40.2860 -73.6180 228° Southwest 280 322 4,800 -720 Descending FlightAware
07:27PM 40.2820 -73.6300 246° West 279 321 4,800  Level FlightAware
07:27PM 40.2670 -73.6730 245° Southwest 279 321 4,800 60 Level FlightAware
07:28PM 40.2500 -73.7190 244° Southwest 280 322 4,900 60 Climbing FlightAware
07:29PM 40.2370 -73.7870 256° West 248 285 4,900 -180 Level FlightAware
07:29PM 40.2340 -73.8260 264° West 232 267 4,700 -600 Descending FlightAware
07:29PM 40.2330 -73.8440 266° West 233 268 4,500 -1,080 Descending FlightAware
07:30PM 40.2310 -73.8780 266° West 235 270 4,100 -840 Descending FlightAware
07:30PM 40.2360 -73.9040 284° West 233 268 3,900 -420 Descending FlightAware
07:31PM 40.2470 -73.9390 292° West 229 264 3,800  Descending FlightAware
07:31PM 40.2512 -73.9527 292° West 232 267 3,900 180 Climbing FlightAware ADS-B
07:31PM 40.2582 -73.9739 293° West 229 264 3,900  Level FlightAware ADS-B
07:31PM 40.2626 -73.9819 306° West 227 261 3,900  Level FlightAware ADS-B
07:31PM 40.2655 -73.9854 317° Northwest 223 257 3,900  Level FlightAware ADS-B
07:31PM 40.2711 -73.9905 325° Northwest 219 252 3,900  Level FlightAware ADS-B
07:32PM 40.2823 -73.9970 336° Northwest 218 251 3,900  Level FlightAware ADS-B
07:32PM 40.2882 -73.9987 348° North 217 250 3,900  Level FlightAware ADS-B
07:32PM 40.2989 -74.0006 352° North 216 249 3,900 -240 Level FlightAware ADS-B
07:32PM 40.3155 -74.0028 354° North 215 247 3,800 -240 Descending FlightAware ADS-B
07:32PM 40.3238 -74.0033 357° North 213 245 3,800 300 Level FlightAware ADS-B
07:32PM 40.3324 -74.0015 North 210 242 3,900 300 Climbing FlightAware ADS-B
07:33PM 40.3416 -73.9982 15° North 209 241 3,900  Level FlightAware ADS-B
07:33PM 40.3494 -73.9948 18° North 211 243 3,900  Level FlightAware ADS-B
07:33PM 40.3667 -73.9840 25° Northeast 208 239 3,900 -180 Level FlightAware ADS-B
07:33PM 40.3812 -73.9733 29° Northeast 205 236 3,800  Descending FlightAware ADS-B
07:34PM 40.3938 -73.9633 31° Northeast 188 216 3,900 120 Climbing FlightAware ADS-B
07:34PM 40.4134 -73.9481 31° Northeast 177 204 3,900  Level FlightAware ADS-B
07:35PM 40.4460 -73.9230 30° Northeast 178 205 3,900 -360 Level FlightAware
07:35PM 40.4640 -73.9090 31° Northeast 168 193 3,500 -840 Descending FlightAware
07:36PM 40.4810 -73.8960 30° Northeast 164 189 3,200 -900 Descending FlightAware
07:36PM 40.5010 -73.8800 31° Northeast 159 183 2,700 -960 Descending FlightAware
07:36PM 40.5070 -73.8750 32° Northeast 157 181 2,600 -900 Descending FlightAware
07:37PM 40.5250 -73.8610 31° Northeast 156 180 2,100 -960 Descending FlightAware
07:37PM 40.5430 -73.8470 31° Northeast 152 175 1,700 -840 Descending FlightAware
07:38PM 40.5620 -73.8330 29° Northeast 147 169 1,300 -780 Descending FlightAware
07:38PM 40.5750 -73.8220 33° Northeast 124 143 1,000 -660 Descending FlightAware
07:39PM 40.5900 -73.8110 29° Northeast 117 135 700 -600 Descending FlightAware
07:39PM 40.5950 -73.8070 31° Northeast 119 137 600 -720 Descending FlightAware
07:39PM 40.6100 -73.7950 31° Northeast 121 139 200 -780 Descending FlightAware
07:40PM 40.6200 -73.7870 31° Northeast 120 138 -600 Descending FlightAware
07:40PM 40.6310 -73.7780 32° Northeast 52 60  Level FlightAware
07:41PM 40.6330 -73.7780 360° North 27 31  Level FlightAware
07:41PM 40.6340 -73.7780 360° North 12 14  Level FlightAware
07:42PM 40.6350 -73.7780 360° North 16 18  Level FlightAware